GRZ575 Details

Departure: (PASD)
Arrival: (PACD)
Route: HBT2 HBT G12 ELF


Current Weather Information
PASD 191556Z 00000KT 10SM CLR 10/09 A3000 RMK AO2 SLP161 T01000089
PACD 191553Z AUTO 22003KT 10SM CLR 07/06 A2998 RMK AO2 SLP152 T00670061 TSNO